Northsea Beta — 9HA2594 — position and weather

sailwx.info

Track history (hours):
 
Tides and Currents Weather Stations Pressure Air Temp Water Temp Dewpoint Dewpoint Depression Visibility Wind Speed Wind Dir Waves Ship Positions

Northsea Beta

Last reported at 2014-Sep-30 09:18 UTC. Time now 2014-Oct-01 18:29 UTC.
Position N 49°36' W 000°30'.

Length 110 m; draft 5.7 m.

Type: Tanker. MMSI: 248970000.

Date/timePositionNaut miles runAvg speedWind from/ knotsBaromVisibWave heightAir tempDewpointWater temp
2014-Sep-30 09:18N 49°36' W 000°30'811.1
2014-Sep-30 08:33N 49°32' W 000°19'1211.8
2014-Sep-30 07:33N 49°28' W 000°02'1313.0
2014-Sep-30 06:33N 49°26' E 000°18'9 0.3
2014-Sep-29 01:20N 49°28' E 000°32'810.4
2014-Sep-29 00:33N 49°26' E 000°20'1110.8
2014-Sep-28 23:33N 49°27' E 000°03'6 5.4
2014-Sep-28 22:31N 49°28' W 000°05'0 0.0
2014-Sep-28 21:28N 49°28' W 000°05'0 0.1
2014-Sep-28 20:28N 49°28' W 000°05'0 0.2
2014-Sep-28 19:33N 49°28' W 000°06'9 9.0
2014-Sep-28 18:33N 49°36' W 000°13'4510.8
2014-Sep-28 14:21N 50°21' W 000°07'20 9.3
2014-Sep-28 12:14N 50°32' E 000°18'10 9.1
2014-Sep-28 11:12N 50°35' E 000°33'6 8.9
2014-Sep-28 10:33N 50°37' E 000°41'3811.8
2014-Sep-28 07:18N 51°02' E 001°28'911.9
2014-Sep-28 06:33N 51°08' E 001°37'1110.6
2014-Sep-28 05:33N 51°16' E 001°49'9 9.4
2014-Sep-28 04:33N 51°23' E 001°58'10 9.0
2014-Sep-28 03:25N 51°21' E 002°14'7 8.2
2014-Sep-28 02:31N 51°22' E 002°26'10 9.1
2014-Sep-28 01:28N 51°23' E 002°41'8 8.7
2014-Sep-28 00:32N 51°23' E 002°54'1010.1
2014-Sep-27 23:32N 51°24' E 003°10'1010.5
2014-Sep-27 22:33N 51°25' E 003°26'10 9.7
2014-Sep-27 21:33N 51°26' E 003°42'8 7.6
2014-Sep-27 20:33N 51°20' E 003°49'3 3.2
2014-Sep-27 19:33N 51°17' E 003°51'0 0.0
2014-Sep-27 13:23N 51°17' E 003°51'0 0.0
2014-Sep-27 11:20N 51°17' E 003°51'0 0.0
2014-Sep-27 10:27N 51°17' E 003°51'0 0.0
2014-Sep-26 21:32N 51°17' E 003°51'0 0.0
2014-Sep-26 20:32N 51°17' E 003°51'0 0.0
2014-Sep-26 19:24N 51°17' E 003°51'0 0.0
2014-Sep-26 18:22N 51°17' E 003°51'0 0.0
2014-Sep-26 09:08N 51°17' E 003°51'2 3.9
2014-Sep-26 08:33N 51°19' E 003°50'2 1.7
2014-Sep-26 07:34N 51°20' E 003°49'7 7.1
2014-Sep-26 06:33N 51°26' E 003°41'7 7.4
2014-Sep-26 05:33N 51°29' E 003°30'37 1.2
2014-Sep-25 00:04N 52°03' E 003°52'4 7.1
2014-Sep-24 23:33N 52°01' E 003°57'1211.8
2014-Sep-24 22:33N 51°55' E 004°14'4 0.2
2014-Sep-24 05:18N 51°53' E 004°19'0 0.0
2014-Sep-23 22:30N 51°53' E 004°19'0 0.0
2014-Sep-23 07:24N 51°53' E 004°19'0 0.0
2014-Sep-23 06:24N 51°53' E 004°19'0 0.0
2014-Sep-23 05:12N 51°53' E 004°19'0 0.0
2014-Sep-22 23:29N 51°53' E 004°18'5 5.3
2014-Sep-22 22:33N 51°56' E 004°13'8 8.5
2014-Sep-22 21:33N 51°60' E 004°00'37 1.8
2014-Sep-22 00:34N 51°51' E 003°01'30 8.9
2014-Sep-21 21:10N 51°34' E 002°21'5 8.0
2014-Sep-21 20:32N 51°31' E 002°16'8 7.6
2014-Sep-21 19:29N 51°23' E 002°11'7 7.5
2014-Sep-21 18:33N 51°17' E 002°07'7 6.8
2014-Sep-21 17:34N 51°12' E 001°60'7 7.4
2014-Sep-21 16:33N 51°09' E 001°49'8 7.6
2014-Sep-21 15:34N 51°03' E 001°40'54 8.9
2014-Sep-21 09:29N 50°26' E 000°39'  
Track history (hours):
 
Tides and Currents Weather Stations Pressure Air Temp Water Temp Dewpoint Dewpoint Depression Visibility Wind Speed Wind Dir Waves Ship Positions

Northsea Beta

Last reported at 2014-Sep-30 09:18 UTC. Time now 2014-Oct-01 18:29 UTC.
Position N 49°36' W 000°30'.

Length 110 m; draft 5.7 m.

Type: Tanker. MMSI: 248970000.

Date/timePositionNaut miles runAvg speedWind from/ knotsBaromVisibWave heightAir tempDewpointWater temp
2014-Sep-30 09:18N 49°36' W 000°30'811.1
2014-Sep-30 08:33N 49°32' W 000°19'1211.8
2014-Sep-30 07:33N 49°28' W 000°02'1313.0
2014-Sep-30 06:33N 49°26' E 000°18'9 0.3
2014-Sep-29 01:20N 49°28' E 000°32'810.4
2014-Sep-29 00:33N 49°26' E 000°20'1110.8
2014-Sep-28 23:33N 49°27' E 000°03'6 5.4
2014-Sep-28 22:31N 49°28' W 000°05'0 0.0
2014-Sep-28 21:28N 49°28' W 000°05'0 0.1
2014-Sep-28 20:28N 49°28' W 000°05'0 0.2
2014-Sep-28 19:33N 49°28' W 000°06'9 9.0
2014-Sep-28 18:33N 49°36' W 000°13'4510.8
2014-Sep-28 14:21N 50°21' W 000°07'20 9.3
2014-Sep-28 12:14N 50°32' E 000°18'10 9.1
2014-Sep-28 11:12N 50°35' E 000°33'6 8.9
2014-Sep-28 10:33N 50°37' E 000°41'3811.8
2014-Sep-28 07:18N 51°02' E 001°28'911.9
2014-Sep-28 06:33N 51°08' E 001°37'1110.6
2014-Sep-28 05:33N 51°16' E 001°49'9 9.4
2014-Sep-28 04:33N 51°23' E 001°58'10 9.0
2014-Sep-28 03:25N 51°21' E 002°14'7 8.2
2014-Sep-28 02:31N 51°22' E 002°26'10 9.1
2014-Sep-28 01:28N 51°23' E 002°41'8 8.7
2014-Sep-28 00:32N 51°23' E 002°54'1010.1
2014-Sep-27 23:32N 51°24' E 003°10'1010.5
2014-Sep-27 22:33N 51°25' E 003°26'10 9.7
2014-Sep-27 21:33N 51°26' E 003°42'8 7.6
2014-Sep-27 20:33N 51°20' E 003°49'3 3.2
2014-Sep-27 19:33N 51°17' E 003°51'0 0.0
2014-Sep-27 13:23N 51°17' E 003°51'0 0.0
2014-Sep-27 11:20N 51°17' E 003°51'0 0.0
2014-Sep-27 10:27N 51°17' E 003°51'0 0.0
2014-Sep-26 21:32N 51°17' E 003°51'0 0.0
2014-Sep-26 20:32N 51°17' E 003°51'0 0.0
2014-Sep-26 19:24N 51°17' E 003°51'0 0.0
2014-Sep-26 18:22N 51°17' E 003°51'0 0.0
2014-Sep-26 09:08N 51°17' E 003°51'2 3.9
2014-Sep-26 08:33N 51°19' E 003°50'2 1.7
2014-Sep-26 07:34N 51°20' E 003°49'7 7.1
2014-Sep-26 06:33N 51°26' E 003°41'7 7.4
2014-Sep-26 05:33N 51°29' E 003°30'37 1.2
2014-Sep-25 00:04N 52°03' E 003°52'4 7.1
2014-Sep-24 23:33N 52°01' E 003°57'1211.8
2014-Sep-24 22:33N 51°55' E 004°14'4 0.2
2014-Sep-24 05:18N 51°53' E 004°19'0 0.0
2014-Sep-23 22:30N 51°53' E 004°19'0 0.0
2014-Sep-23 07:24N 51°53' E 004°19'0 0.0
2014-Sep-23 06:24N 51°53' E 004°19'0 0.0
2014-Sep-23 05:12N 51°53' E 004°19'0 0.0
2014-Sep-22 23:29N 51°53' E 004°18'5 5.3
2014-Sep-22 22:33N 51°56' E 004°13'8 8.5
2014-Sep-22 21:33N 51°60' E 004°00'37 1.8
2014-Sep-22 00:34N 51°51' E 003°01'30 8.9
2014-Sep-21 21:10N 51°34' E 002°21'5 8.0
2014-Sep-21 20:32N 51°31' E 002°16'8 7.6
2014-Sep-21 19:29N 51°23' E 002°11'7 7.5
2014-Sep-21 18:33N 51°17' E 002°07'7 6.8
2014-Sep-21 17:34N 51°12' E 001°60'7 7.4
2014-Sep-21 16:33N 51°09' E 001°49'8 7.6
2014-Sep-21 15:34N 51°03' E 001°40'54 8.9
2014-Sep-21 09:29N 50°26' E 000°39'  

Dump ship's entire track history